Time;durP1;ratioP1;P1;durP2;ratioP2;P2;SDS_P1;SDS_P2;PMS_P1;PMS_P2;Temp;Humidity;BMP_temperature;BMP_pressure;BME280_temperature;BME280_humidity;BME280_pressure;Samples;Min_cycle;Max_cycle;Signal;HPM_P1;HPM_P2
2023/04/13 00:01:24;;;;;;;7.47;4.60;;;;;;;5.32;100.00;99269.66;5005919;28;20122;-77
2023/04/13 00:03:49;;;;;;;8.70;4.35;;;;;;;5.23;100.00;99268.00;5020994;28;20125;-76
2023/04/13 00:06:15;;;;;;;8.07;4.28;;;;;;;5.21;100.00;99273.44;5019442;28;20037;-76
2023/04/13 00:08:42;;;;;;;5.68;4.00;;;;;;;5.07;100.00;99277.56;5005761;28;20034;-76
2023/04/13 00:11:07;;;;;;;5.05;3.28;;;;;;;5.02;100.00;99279.03;5025052;28;20026;-77
2023/04/13 00:13:39;;;;;;;9.87;3.77;;;;;;;4.99;100.00;99268.78;5009377;28;20491;-76
2023/04/13 00:16:08;;;;;;;8.57;4.07;;;;;;;5.06;100.00;99281.19;5024506;28;20040;-76
2023/04/13 00:18:34;;;;;;;9.68;5.15;;;;;;;5.07;100.00;99282.03;5021397;28;20112;-76
2023/04/13 00:20:59;;;;;;;12.77;5.57;;;;;;;5.11;100.00;99279.88;5023227;28;20088;-76
2023/04/13 00:23:25;;;;;;;14.53;7.17;;;;;;;5.07;100.00;99280.19;5009189;28;20112;-76
2023/04/13 00:25:50;;;;;;;17.07;8.07;;;;;;;5.14;100.00;99276.91;5024471;28;20997;-77
2023/04/13 00:28:17;;;;;;;18.40;8.70;;;;;;;5.16;100.00;99288.16;5024702;28;20037;-76
2023/04/13 00:30:43;;;;;;;19.25;9.23;;;;;;;5.23;100.00;99297.09;5031685;28;20483;-77
2023/04/13 00:33:08;;;;;;;23.70;11.63;;;;;;;5.22;100.00;99295.44;5036526;28;20037;-77
2023/04/13 00:35:33;;;;;;;29.53;14.37;;;;;;;5.11;100.00;99291.28;5019730;28;20391;-77
2023/04/13 00:38:01;;;;;;;31.80;14.87;;;;;;;5.14;100.00;99298.91;5019773;28;20496;-77
2023/04/13 00:40:28;;;;;;;32.05;13.80;;;;;;;5.15;100.00;99307.66;5036993;28;20038;-76
2023/04/13 00:42:54;;;;;;;30.08;15.75;;;;;;;5.10;100.00;99304.66;5017659;28;20121;-77
2023/04/13 00:45:20;;;;;;;32.35;14.23;;;;;;;5.12;100.00;99311.44;5009200;28;20026;-77
2023/04/13 00:47:48;;;;;;;38.42;16.60;;;;;;;5.18;100.00;99312.63;5024343;28;20030;-77
2023/04/13 00:50:17;;;;;;;32.35;15.48;;;;;;;5.07;100.00;99308.47;5026729;28;20026;-76
2023/04/13 00:52:44;;;;;;;35.72;15.48;;;;;;;5.08;100.00;99308.31;5024221;28;20037;-77
2023/04/13 00:55:11;;;;;;;36.30;16.60;;;;;;;4.98;100.00;99301.50;5024216;28;20037;-77
2023/04/13 00:57:39;;;;;;;34.42;17.02;;;;;;;4.95;100.00;99292.09;5024460;28;20033;-76
2023/04/13 01:00:11;;;;;;;35.88;16.60;;;;;;;4.96;100.00;99296.38;5023928;28;20028;-77
2023/04/13 01:02:40;;;;;;;31.23;16.88;;;;;;;4.89;100.00;99294.53;5007193;28;20473;-76
2023/04/13 01:05:06;;;;;;;38.03;17.38;;;;;;;4.83;100.00;99288.91;5009042;28;20034;-77
2023/04/13 01:08:07;;;;;;;30.42;17.05;;;;;;;4.84;100.00;99301.13;5023832;28;20033;-77
2023/04/13 01:10:47;;;;;;;33.78;15.77;;;;;;;4.73;100.00;99297.94;5023997;28;20026;-76
2023/04/13 01:13:24;;;;;;;38.58;17.73;;;;;;;4.78;100.00;99293.03;5027502;28;20060;-77
2023/04/13 01:16:05;;;;;;;38.33;17.48;;;;;;;4.61;100.00;99292.97;5032873;28;20037;-77
2023/04/13 01:18:56;;;;;;;35.92;16.60;;;;;;;4.61;100.00;99297.41;5004314;28;20038;-77
2023/04/13 01:21:24;;;;;;;39.40;15.90;;;;;;;4.54;100.00;99299.91;4984213;28;20064;-76
2023/04/13 01:24:01;;;;;;;43.83;18.80;;;;;;;4.44;100.00;99302.63;5002409;28;20029;-76
2023/04/13 01:26:32;;;;;;;;;;;;;;;4.46;100.00;99307.78;4973355;28;20088;-76
2023/04/13 01:29:00;;;;;;;43.17;16.10;;;;;;;4.42;100.00;99304.63;5005136;28;19996;-79
2023/04/13 01:31:27;;;;;;;38.08;16.13;;;;;;;4.36;100.00;99304.44;4986132;28;20026;-76
2023/04/13 01:33:52;;;;;;;;;;;;;;;4.36;100.00;99304.44;4999293;28;20139;-75
2023/04/13 01:36:18;;;;;;;52.78;18.90;;;;;;;4.25;100.00;99304.69;5002579;28;19957;-75
2023/04/13 01:38:45;;;;;;;40.88;19.15;;;;;;;4.12;100.00;99298.03;5004639;28;20038;-76
2023/04/13 01:41:11;;;;;;;45.20;17.58;;;;;;;4.15;100.00;99307.47;4972570;28;20503;-76
2023/04/13 01:43:42;;;;;;;42.55;19.52;;;;;;;4.04;100.00;99303.25;4973028;28;20380;-76
2023/04/13 01:46:10;;;;;;;46.00;19.55;;;;;;;4.05;100.00;99312.00;4972060;28;20053;-76
2023/04/13 01:49:14;;;;;;;50.42;20.17;;;;;;;3.95;100.00;99317.38;4921516;29;20038;-76
2023/04/13 01:52:06;;;;;;;51.33;19.08;;;;;;;3.88;100.00;99313.72;4994374;28;20034;-76
2023/04/13 01:54:36;;;;;;;51.85;19.65;;;;;;;3.86;100.00;99313.84;5028796;28;20495;-76
2023/04/13 01:57:03;;;;;;;48.50;18.40;;;;;;;3.76;100.00;99308.66;5038654;28;20057;-75
2023/04/13 01:59:29;;;;;;;53.60;18.05;;;;;;;3.77;100.00;99310.34;5009600;28;20097;-76
2023/04/13 02:01:56;;;;;;;51.17;19.02;;;;;;;3.70;100.00;99309.31;5038035;28;20026;-77
2023/04/13 02:04:22;;;;;;;49.40;18.27;;;;;;;3.71;100.00;99316.22;5005859;28;20038;-77
2023/04/13 02:06:50;;;;;;;44.10;18.75;;;;;;;3.69;100.00;99315.53;5005597;28;20100;-77
2023/04/13 02:09:19;;;;;;;43.42;17.70;;;;;;;3.72;100.00;99325.81;5005721;28;20030;-77
2023/04/13 02:11:46;;;;;;;41.63;16.42;;;;;;;3.61;100.00;99320.78;5022122;28;20026;-76
2023/04/13 02:14:12;;;;;;;35.00;15.80;;;;;;;3.59;100.00;99314.81;5013333;28;20037;-75
2023/04/13 02:16:39;;;;;;;35.42;14.90;;;;;;;3.53;100.00;99318.88;5022464;28;20087;-78
2023/04/13 02:19:04;;;;;;;40.95;14.90;;;;;;;3.51;100.00;99327.94;5022228;28;20026;-76
2023/04/13 02:21:30;;;;;;;30.40;14.25;;;;;;;3.42;100.00;99329.69;5022090;28;20037;-76
2023/04/13 02:23:55;;;;;;;35.90;15.07;;;;;;;3.32;100.00;99328.91;5005590;28;20078;-76
2023/04/13 02:26:22;;;;;;;47.17;16.00;;;;;;;3.37;100.00;99330.16;5022132;28;20551;-76
2023/04/13 02:28:49;;;;;;;37.08;14.90;;;;;;;3.38;100.00;99331.78;5007073;28;20161;-76
2023/04/13 02:31:15;;;;;;;34.65;15.95;;;;;;;3.25;100.00;99318.13;5003523;28;20026;-77
2023/04/13 02:33:43;;;;;;;34.30;15.13;;;;;;;3.35;100.00;99332.09;5027468;28;20042;-77
2023/04/13 02:36:09;;;;;;;34.40;14.65;;;;;;;3.41;100.00;99327.19;5017319;28;20018;-76
2023/04/13 02:38:37;;;;;;;30.55;14.35;;;;;;;3.41;100.00;99330.66;5022033;28;20498;-77
2023/04/13 02:41:10;;;;;;;29.60;14.25;;;;;;;3.35;100.00;99320.72;5000022;28;20030;-76
2023/04/13 02:43:35;;;;;;;30.58;13.80;;;;;;;3.27;100.00;99315.34;5025976;28;20088;-76
2023/04/13 02:46:01;;;;;;;34.88;15.70;;;;;;;3.22;100.00;99320.25;5011277;28;20064;-76
2023/04/13 02:48:32;;;;;;;32.17;14.93;;;;;;;3.13;100.00;99316.69;5005695;28;20018;-76
2023/04/13 02:50:58;;;;;;;39.22;18.15;;;;;;;3.26;100.00;99316.34;5022629;28;20084;-76
2023/04/13 02:53:28;;;;;;;36.50;15.75;;;;;;;3.14;100.00;99318.38;5006219;28;20034;-76
2023/04/13 02:55:59;;;;;;;35.35;16.65;;;;;;;3.08;100.00;99305.78;4989955;28;20140;-76
2023/04/13 02:58:24;;;;;;;36.42;16.83;;;;;;;3.13;100.00;99316.69;5021022;28;20109;-76
2023/04/13 03:00:57;;;;;;;40.10;17.25;;;;;;;3.19;100.00;99316.13;5004110;28;20112;-76
2023/04/13 03:03:23;;;;;;;41.47;18.50;;;;;;;3.17;100.00;99318.06;5026348;28;20030;-75
2023/04/13 03:05:50;;;;;;;49.42;20.25;;;;;;;3.09;100.00;99310.06;5007622;28;20512;-76
2023/04/13 03:08:18;;;;;;;39.92;18.52;;;;;;;3.02;100.00;99306.38;5009526;28;20030;-76
2023/04/13 03:11:05;;;;;;;42.67;18.58;;;;;;;2.93;100.00;99311.56;5026061;28;20026;-76
2023/04/13 03:13:31;;;;;;;47.72;18.60;;;;;;;2.95;100.00;99309.63;5026672;28;20148;-76
2023/04/13 03:15:59;;;;;;;47.63;18.50;;;;;;;2.87;100.00;99313.97;5023133;28;20117;-76
2023/04/13 03:18:26;;;;;;;55.15;21.35;;;;;;;2.83;100.00;99310.78;5009655;28;20522;-76
2023/04/13 03:20:52;;;;;;;53.20;21.25;;;;;;;2.82;100.00;99309.13;4984667;28;20099;-76
2023/04/13 03:23:20;;;;;;;45.75;19.58;;;;;;;2.78;100.00;99317.47;5026036;28;20026;-76
2023/04/13 03:25:46;;;;;;;49.97;20.98;;;;;;;2.76;100.00;99320.25;5011039;28;20037;-76
2023/04/13 03:28:11;;;;;;;51.07;20.37;;;;;;;2.74;100.00;99320.41;5009400;28;20037;-76
2023/04/13 03:30:40;;;;;;;45.17;20.67;;;;;;;2.81;100.00;99327.72;5005226;28;20498;-76
2023/04/13 03:33:06;;;;;;;42.45;18.90;;;;;;;2.77;100.00;99334.28;5004569;28;20045;-76
2023/04/13 03:35:34;;;;;;;42.40;20.75;;;;;;;2.71;100.00;99330.41;5024783;28;20034;-76
2023/04/13 03:38:02;;;;;;;39.05;17.83;;;;;;;2.63;100.00;99335.59;5026344;28;20026;-76
2023/04/13 03:40:40;;;;;;;39.33;17.40;;;;;;;2.66;100.00;99341.38;5033346;28;20932;-76
2023/04/13 03:43:06;;;;;;;41.67;18.08;;;;;;;2.61;100.00;99342.81;5020364;28;20049;-75
2023/04/13 03:45:35;;;;;;;41.42;18.30;;;;;;;2.62;100.00;99341.81;5024828;28;20037;-76
2023/04/13 03:48:06;;;;;;;46.17;20.70;;;;;;;2.60;100.00;99341.13;5008458;28;20048;-76
2023/04/13 03:50:32;;;;;;;45.30;15.60;;;;;;;2.50;100.00;99338.56;5026177;28;20026;-75
2023/04/13 03:52:57;;;;;;;49.72;16.70;;;;;;;2.46;100.00;99330.13;5011815;28;20121;-76
2023/04/13 03:55:23;;;;;;;42.38;16.20;;;;;;;2.52;100.00;99331.34;5029473;28;20092;-76
2023/04/13 03:57:49;;;;;;;41.80;15.88;;;;;;;2.48;100.00;99327.31;5031696;28;20525;-76
2023/04/13 04:00:19;;;;;;;37.33;16.40;;;;;;;2.47;100.00;99336.22;5027479;28;20213;-76
2023/04/13 04:02:58;;;;;;;44.65;16.80;;;;;;;2.47;100.00;99329.13;5027631;28;20030;-76
2023/04/13 04:05:31;;;;;;;35.20;16.60;;;;;;;2.48;100.00;99333.44;5029913;28;20064;-75
2023/04/13 04:08:00;;;;;;;43.97;16.25;;;;;;;2.53;100.00;99340.91;4993292;28;20041;-76
2023/04/13 04:10:27;;;;;;;45.42;18.30;;;;;;;2.50;100.00;99339.38;4992177;28;20022;-77
2023/04/13 04:12:55;;;;;;;40.95;16.13;;;;;;;2.46;100.00;99340.66;5029939;28;20030;-76
2023/04/13 04:15:21;;;;;;;37.92;14.88;;;;;;;2.42;100.00;99338.47;5029415;28;20037;-76
2023/04/13 04:17:52;;;;;;;42.13;14.80;;;;;;;2.46;100.00;99345.09;5011493;28;20059;-76
2023/04/13 04:20:18;;;;;;;35.27;14.53;;;;;;;2.49;100.00;99345.63;5016799;28;20033;-77
2023/04/13 04:22:46;;;;;;;35.08;16.15;;;;;;;2.52;100.00;99339.25;5031799;28;20342;-76
2023/04/13 04:25:20;;;;;;;31.00;15.95;;;;;;;2.53;100.00;99349.66;5024317;28;20490;-76
2023/04/13 04:27:48;;;;;;;;;;;;;;;2.57;100.00;99357.25;5008522;28;20041;-76
2023/04/13 04:30:14;;;;;;;36.30;14.60;;;;;;;2.58;100.00;99356.28;5039461;28;19913;-77
2023/04/13 04:32:40;;;;;;;38.85;15.43;;;;;;;2.51;100.00;99343.69;5026295;28;20076;-76
2023/04/13 04:35:10;;;;;;;32.83;13.82;;;;;;;2.60;100.00;99346.41;5028898;28;20072;-75
2023/04/13 04:37:41;;;;;;;36.20;15.43;;;;;;;2.59;100.00;99353.50;5032129;28;20595;-75
2023/04/13 04:40:14;;;;;;;38.20;13.35;;;;;;;2.60;100.00;99357.81;5020959;28;20034;-76
2023/04/13 04:42:41;;;;;;;30.95;14.32;;;;;;;2.60;100.00;99352.53;5033702;28;20129;-76
2023/04/13 04:45:14;;;;;;;36.30;15.35;;;;;;;2.66;100.00;99343.19;5028581;28;20100;-76
2023/04/13 04:47:42;;;;;;;28.38;13.38;;;;;;;2.72;100.00;99350.53;5023960;28;20045;-76
2023/04/13 04:50:18;;;;;;;34.15;12.93;;;;;;;2.70;100.00;99347.22;5036092;28;20060;-75
2023/04/13 04:52:47;;;;;;;38.70;14.13;;;;;;;2.73;100.00;99346.91;5029574;28;20032;-75
2023/04/13 04:55:17;;;;;;;27.95;12.88;;;;;;;2.79;100.00;99351.59;5031645;28;20105;-76
2023/04/13 04:57:42;;;;;;;38.53;15.23;;;;;;;2.79;100.00;99354.25;5011887;28;20120;-76
2023/04/13 05:00:16;;;;;;;32.15;12.88;;;;;;;2.89;100.00;99365.56;5023582;28;20038;-75
2023/04/13 05:02:51;;;;;;;36.17;13.70;;;;;;;2.90;100.00;99371.66;5007043;28;20041;-75
2023/04/13 05:05:18;;;;;;;35.55;13.85;;;;;;;2.89;100.00;99365.56;5007438;28;20032;-75
2023/04/13 05:07:44;;;;;;;32.90;14.02;;;;;;;2.82;100.00;99369.75;5037064;28;20021;-76
2023/04/13 05:10:10;;;;;;;32.60;13.75;;;;;;;2.91;100.00;99370.69;5004788;28;20064;-76
2023/04/13 05:12:41;;;;;;;31.42;12.63;;;;;;;2.90;100.00;99369.88;5036754;28;20079;-76
2023/04/13 05:15:07;;;;;;;32.53;13.63;;;;;;;2.97;100.00;99372.72;5023684;28;20030;-75
2023/04/13 05:17:35;;;;;;;33.05;15.32;;;;;;;3.00;100.00;99374.22;5033674;28;20327;-75
2023/04/13 05:20:02;;;;;;;34.55;14.43;;;;;;;3.03;100.00;99363.41;5036681;28;20056;-75
2023/04/13 05:22:37;;;;;;;28.38;12.50;;;;;;;3.08;100.00;99374.34;5038620;28;20040;-76
2023/04/13 05:25:05;;;;;;;29.17;14.88;;;;;;;3.17;100.00;99370.81;5041426;28;20041;-75
2023/04/13 05:27:30;;;;;;;32.30;14.15;;;;;;;3.23;100.00;99364.09;5034681;28;20040;-75
2023/04/13 05:29:57;;;;;;;27.33;12.18;;;;;;;3.24;100.00;99360.50;5035661;28;20041;-76
2023/04/13 05:32:24;;;;;;;32.22;12.15;;;;;;;3.31;100.00;99366.84;5027851;28;20022;-76
2023/04/13 05:34:52;;;;;;;29.58;13.88;;;;;;;3.47;100.00;99363.53;5018517;28;20124;-75
2023/04/13 05:37:21;;;;;;;24.05;11.02;;;;;;;3.68;100.00;99368.50;5007457;28;20029;-76
2023/04/13 05:39:46;;;;;;;26.83;11.57;;;;;;;3.69;100.00;99365.69;5008228;28;20467;-75
2023/04/13 05:42:14;;;;;;;21.85;10.68;;;;;;;3.83;100.00;99356.41;5024588;28;20366;-75
2023/04/13 05:44:42;;;;;;;26.88;11.70;;;;;;;4.52;100.00;99356.53;5034038;28;20506;-75
2023/04/13 05:47:08;;;;;;;18.63;9.20;;;;;;;5.36;100.00;99354.81;5027166;28;20458;-75
2023/04/13 05:49:34;;;;;;;16.77;8.07;;;;;;;6.48;100.00;99367.41;5009198;28;20045;-76
2023/04/13 05:52:00;;;;;;;15.05;7.40;;;;;;;6.87;100.00;99318.03;5006559;28;20030;-76
2023/04/13 05:54:36;;;;;;;;;;;;;;;6.65;100.00;99301.03;5023641;28;20061;-75
2023/04/13 05:57:01;;;;;;;17.20;7.18;;;;;;;6.94;100.00;99273.88;5055444;28;19956;-75
2023/04/13 05:59:28;;;;;;;;;;;;;;;7.68;100.00;99260.06;5037323;28;20013;-75
2023/04/13 06:01:54;;;;;;;17.15;6.50;;;;;;;7.59;100.00;99227.44;5036963;28;19917;-75
2023/04/13 06:04:21;;;;;;;13.70;7.38;;;;;;;7.61;100.00;99198.88;5031390;28;20034;-75
2023/04/13 06:06:48;;;;;;;14.80;7.78;;;;;;;7.42;100.00;99184.25;5029360;28;20017;-74
2023/04/13 06:09:14;;;;;;;19.63;7.45;;;;;;;7.20;100.00;99148.78;5006627;28;20033;-74
2023/04/13 06:11:40;;;;;;;16.65;6.50;;;;;;;7.82;100.00;99161.78;5023790;28;20026;-75
2023/04/13 06:14:05;;;;;;;13.38;6.68;;;;;;;8.34;100.00;99165.31;5021527;28;20051;-79
2023/04/13 06:16:34;;;;;;;19.43;7.10;;;;;;;8.23;100.00;99054.94;5026472;28;20112;-77
2023/04/13 06:19:00;;;;;;;17.42;7.22;;;;;;;8.27;100.00;99055.41;5008883;28;20096;-75
2023/04/13 06:21:27;;;;;;;14.10;6.38;;;;;;;8.45;100.00;99042.53;5009628;28;20835;-75
2023/04/13 06:23:52;;;;;;;13.82;5.97;;;;;;;8.26;100.00;98995.25;5007943;28;20047;-74
2023/04/13 06:26:27;;;;;;;14.48;6.78;;;;;;;7.56;100.00;98899.31;5024566;28;20100;-76
2023/04/13 06:28:54;;;;;;;15.07;6.53;;;;;;;7.69;100.00;98964.22;5036540;28;20026;-75
2023/04/13 06:31:20;;;;;;;13.60;6.00;;;;;;;8.16;100.00;98947.72;5031345;28;20013;-76
2023/04/13 06:33:48;;;;;;;15.07;6.15;;;;;;;7.35;100.00;98860.28;5007510;28;20030;-77
2023/04/13 06:36:15;;;;;;;17.38;7.13;;;;;;;7.40;100.00;98952.66;5005663;28;20045;-76
2023/04/13 06:38:41;;;;;;;11.18;6.57;;;;;;;7.87;100.00;98935.38;5024786;28;20045;-74
2023/04/13 06:41:11;;;;;;;9.02;5.88;;;;;;;8.25;100.00;98935.13;5022170;28;20045;-77
2023/04/13 06:43:38;;;;;;;13.13;7.22;;;;;;;8.27;100.00;98881.75;5029028;28;20044;-77
2023/04/13 06:46:24;;;;;;;12.63;6.03;;;;;;;8.52;100.00;98844.91;5034590;28;20057;-78
2023/04/13 06:48:52;;;;;;;14.88;6.38;;;;;;;8.23;100.00;98799.72;5019878;28;20041;-77
2023/04/13 06:51:21;;;;;;;17.20;6.55;;;;;;;8.00;100.00;98833.69;5022697;28;20025;-77
2023/04/13 06:53:47;;;;;;;15.13;5.87;;;;;;;8.28;100.00;98848.84;5023520;28;20060;-78
2023/04/13 06:56:12;;;;;;;14.57;6.87;;;;;;;7.51;100.00;98758.31;5042646;28;20059;-76
2023/04/13 06:58:38;;;;;;;10.77;5.72;;;;;;;7.60;100.00;98838.66;5007269;28;20112;-77
2023/04/13 07:01:03;;;;;;;9.57;5.80;;;;;;;7.64;100.00;98823.19;5006530;28;20056;-78
2023/04/13 07:03:32;;;;;;;14.55;6.18;;;;;;;7.56;100.00;98818.81;5024668;28;20129;-78
2023/04/13 07:05:58;;;;;;;8.95;5.65;;;;;;;7.76;100.00;98878.25;5014018;28;20068;-76
2023/04/13 07:08:23;;;;;;;12.03;6.43;;;;;;;7.13;100.00;98814.28;5017724;28;20086;-77
2023/04/13 07:10:53;;;;;;;11.40;6.00;;;;;;;7.36;100.00;98903.56;5021219;28;20030;-75
2023/04/13 07:13:29;;;;;;;11.63;6.53;;;;;;;7.20;100.00;98899.31;5022877;28;20117;-78
2023/04/13 07:15:55;;;;;;;14.80;5.82;;;;;;;7.17;100.00;98897.84;5006860;28;20200;-77
2023/04/13 07:18:21;;;;;;;12.75;5.88;;;;;;;7.65;100.00;98989.50;5006768;28;20167;-74
2023/04/13 07:20:47;;;;;;;11.82;5.85;;;;;;;7.87;100.00;98966.47;5023823;28;20032;-78
2023/04/13 07:23:14;;;;;;;9.20;4.75;;;;;;;7.83;100.00;98950.06;5023648;28;20495;-76
2023/04/13 07:25:40;;;;;;;7.27;4.30;;;;;;;8.31;100.00;98970.75;5024001;28;20038;-78
2023/04/13 07:28:13;;;;;;;9.93;4.72;;;;;;;8.43;100.00;98855.72;5043176;28;20034;-76
2023/04/13 07:30:42;;;;;;;8.93;4.95;;;;;;;8.39;100.00;98840.31;5024765;28;20589;-78
2023/04/13 07:33:08;;;;;;;8.05;4.50;;;;;;;8.59;100.00;98804.06;5024991;28;20052;-79
2023/04/13 07:35:35;;;;;;;10.43;5.63;;;;;;;8.60;100.00;98703.81;5015627;28;20022;-77
2023/04/13 07:38:01;;;;;;;7.30;4.38;;;;;;;8.61;100.00;98718.72;5004173;28;20464;-76
2023/04/13 07:40:27;;;;;;;10.37;4.30;;;;;;;9.20;100.00;98731.38;5037798;28;20112;-76
2023/04/13 07:42:56;;;;;;;6.97;3.92;;;;;;;8.94;100.00;98657.59;5043392;28;20734;-75
2023/04/13 07:45:22;;;;;;;9.00;3.72;;;;;;;9.18;100.00;98663.38;5029138;28;20025;-79
2023/04/13 07:47:48;;;;;;;9.52;4.18;;;;;;;9.56;100.00;98556.19;5008741;28;20025;-78
2023/04/13 07:50:15;;;;;;;6.78;3.97;;;;;;;9.52;100.00;98462.56;5042909;28;20037;-76
2023/04/13 07:52:42;;;;;;;6.63;3.92;;;;;;;9.08;100.00;98387.78;5010301;28;20108;-78
2023/04/13 07:55:08;;;;;;;8.98;3.42;;;;;;;8.25;100.00;98403.44;5039606;28;20072;-77
2023/04/13 07:57:38;;;;;;;7.78;3.78;;;;;;;8.61;100.00;98613.13;5029756;28;20126;-77
2023/04/13 08:00:05;;;;;;;;;;;;;;;8.33;100.00;98698.31;5025167;28;20025;-79
2023/04/13 08:02:39;;;;;;;6.18;3.38;;;;;;;8.31;100.00;98756.22;5022077;28;20346;-79
2023/04/13 08:05:05;;;;;;;5.15;3.40;;;;;;;8.37;100.00;98803.28;5040040;28;20502;-79
2023/04/13 08:07:31;;;;;;;9.10;3.85;;;;;;;8.07;100.00;98759.34;5040583;28;20056;-78
2023/04/13 08:09:56;;;;;;;5.10;3.40;;;;;;;8.50;100.00;98876.22;5025038;28;20399;-78
2023/04/13 08:12:22;;;;;;;8.63;4.90;;;;;;;8.14;100.00;98848.72;5025274;28;20025;-78
2023/04/13 08:14:47;;;;;;;8.87;2.90;;;;;;;8.68;100.00;98913.78;5033223;28;20280;-78
2023/04/13 08:17:13;;;;;;;5.57;2.63;;;;;;;8.79;100.00;98832.59;5008844;28;20059;-79
2023/04/13 08:19:39;;;;;;;9.45;2.75;;;;;;;8.28;100.00;98715.91;5039587;28;20037;-78
2023/04/13 08:22:04;;;;;;;4.32;2.35;;;;;;;8.07;100.00;98677.75;5027769;28;20048;-78
2023/04/13 08:24:34;;;;;;;6.97;2.53;;;;;;;8.08;100.00;98702.50;5018469;28;20018;-78
2023/04/13 08:26:59;;;;;;;3.30;2.13;;;;;;;8.26;100.00;98721.41;5032499;28;20029;-77
2023/04/13 08:29:26;;;;;;;3.80;1.80;;;;;;;8.35;100.00;98658.25;5028822;28;20040;-78
2023/04/13 08:31:52;;;;;;;3.55;1.20;;;;;;;8.00;100.00;98565.31;5026692;28;20033;-77
2023/04/13 08:34:18;;;;;;;3.75;1.63;;;;;;;7.94;100.00;98638.66;5028033;28;20501;-78
2023/04/13 08:36:44;;;;;;;6.18;2.20;;;;;;;8.10;100.00;98719.06;5028215;28;20053;-78
2023/04/13 08:39:10;;;;;;;2.40;1.60;;;;;;;8.02;100.00;98688.97;5026321;28;20029;-78
2023/04/13 08:41:42;;;;;;;2.00;1.55;;;;;;;8.14;100.00;98753.03;5024885;28;20490;-76
2023/04/13 08:44:11;;;;;;;5.68;1.70;;;;;;;7.89;100.00;98718.16;5024574;28;20072;-77
2023/04/13 08:46:43;;;;;;;3.67;1.63;;;;;;;8.09;100.00;98789.19;5014537;28;20034;-77
2023/04/13 08:49:11;;;;;;;5.50;1.92;;;;;;;7.89;100.00;98755.34;5033070;28;20091;-78
2023/04/13 08:52:09;;;;;;;2.75;1.80;;;;;;;7.68;100.00;98801.38;5026510;28;20033;-74
2023/04/13 08:54:36;;;;;;;3.25;1.85;;;;;;;7.60;100.00;98804.97;5002123;28;20049;-75
2023/04/13 08:57:04;;;;;;;4.40;1.50;;;;;;;7.88;100.00;98864.47;5029775;28;20097;-78
2023/04/13 08:59:30;;;;;;;4.43;1.90;;;;;;;7.96;100.00;98846.56;5044188;28;20041;-78
2023/04/13 09:02:00;;;;;;;2.13;1.77;;;;;;;7.88;100.00;98787.41;5029345;28;20128;-78
2023/04/13 09:04:34;;;;;;;3.60;1.60;;;;;;;7.82;100.00;98792.50;5025260;28;20025;-79
2023/04/13 09:06:59;;;;;;;7.65;2.00;;;;;;;7.89;100.00;98794.34;5010138;28;20045;-78
2023/04/13 09:09:26;;;;;;;;;;;;;;;7.79;100.00;98765.47;5044438;28;20033;-74
2023/04/13 09:11:51;;;;;;;3.70;2.08;;;;;;;7.75;100.00;98785.47;5040789;28;19913;-77
2023/04/13 09:14:20;;;;;;;2.33;1.60;;;;;;;7.68;100.00;98776.63;5026487;28;20037;-75
2023/04/13 09:16:46;;;;;;;2.63;1.60;;;;;;;7.82;100.00;98820.91;5010075;28;20083;-77
2023/04/13 09:19:31;;;;;;;3.22;1.65;;;;;;;7.98;100.00;98871.13;5011840;28;20021;-76
2023/04/13 09:21:56;;;;;;;3.15;1.55;;;;;;;7.87;100.00;98823.78;5042098;28;20540;-76
2023/04/13 09:24:22;;;;;;;4.22;2.33;;;;;;;7.89;100.00;98837.72;5019475;28;20032;-77
2023/04/13 09:26:48;;;;;;;3.53;2.07;;;;;;;7.89;100.00;98840.38;5022414;28;20040;-78
2023/04/13 09:29:16;;;;;;;6.85;1.73;;;;;;;7.89;100.00;98818.28;5026993;28;20033;-79
2023/04/13 09:31:42;;;;;;;3.20;1.95;;;;;;;7.99;100.00;98842.69;5029237;28;20507;-78
2023/04/13 09:34:08;;;;;;;3.40;2.00;;;;;;;8.52;100.00;98898.13;5029528;28;20083;-78
2023/04/13 09:36:35;;;;;;;2.80;1.70;;;;;;;9.05;100.00;98869.16;5025096;28;20116;-78
2023/04/13 09:39:01;;;;;;;5.03;1.80;;;;;;;8.69;100.00;98660.03;5020760;28;20029;-74
2023/04/13 09:41:36;;;;;;;6.88;2.38;;;;;;;8.40;100.00;98566.25;4992407;28;20038;-77
2023/04/13 09:44:16;;;;;;;4.50;2.17;;;;;;;8.58;100.00;98626.84;5041123;28;20398;-77
2023/04/13 09:46:43;;;;;;;3.90;1.42;;;;;;;8.72;100.00;98601.09;5028195;28;20088;-78
2023/04/13 09:49:08;;;;;;;3.55;2.00;;;;;;;9.08;100.00;98658.44;5029584;28;20038;-79
2023/04/13 09:51:38;;;;;;;2.40;1.97;;;;;;;8.86;100.00;98560.16;5043314;28;20013;-78
2023/04/13 09:54:07;;;;;;;1.83;1.60;;;;;;;8.51;100.00;98494.91;5044798;28;20037;-76
2023/04/13 09:56:53;;;;;;;3.42;2.10;;;;;;;8.52;100.00;98547.06;5021287;28;20037;-78
2023/04/13 09:59:22;;;;;;;3.55;1.63;;;;;;;8.66;100.00;98533.56;5018986;28;20575;-78
2023/04/13 10:01:48;;;;;;;3.50;2.15;;;;;;;8.86;100.00;98593.94;5022100;28;20041;-75
2023/04/13 10:04:14;;;;;;;;;;;;;;;9.29;100.00;98621.00;5027406;28;20088;-75
2023/04/13 10:06:41;;;;;;;;;;;;;;;9.59;100.00;98598.41;5063034;28;19909;-77
2023/04/13 10:09:07;;;;;;;3.90;1.83;;;;;;;9.73;100.00;98589.34;5031257;28;19993;-79
2023/04/13 10:11:43;;;;;;;1.75;1.40;;;;;;;9.43;100.00;98477.13;5005996;28;20034;-78
2023/04/13 10:14:32;;;;;;;3.95;2.08;;;;;;;8.77;100.00;98327.28;5022154;28;20033;-79
2023/04/13 10:17:26;;;;;;;2.90;1.73;;;;;;;8.80;100.00;98469.72;5011120;28;20180;-76
2023/04/13 10:20:00;;;;;;;6.13;2.28;;;;;;;8.84;100.00;98526.81;5009028;28;20148;-78
2023/04/13 10:22:28;;;;;;;3.20;1.85;;;;;;;8.75;100.00;98465.00;5020282;28;20075;-74
2023/04/13 10:24:53;;;;;;;2.30;1.75;;;;;;;8.76;100.00;98490.59;5025116;28;20029;-79
2023/04/13 10:27:21;;;;;;;1.95;1.58;;;;;;;8.94;100.00;98450.03;5030015;28;20090;-79
2023/04/13 10:29:47;;;;;;;5.72;1.40;;;;;;;8.88;100.00;98402.97;5023393;28;20041;-77
2023/04/13 10:32:20;;;;;;;;;;;;;;;9.48;100.00;98530.59;5021187;28;20037;-75
2023/04/13 10:34:46;;;;;;;2.20;1.40;;;;;;;9.56;100.00;98386.53;5059976;28;19963;-78
2023/04/13 10:37:21;;;;;;;;;;;;;;;9.91;100.00;98380.78;4993254;28;20018;-79
2023/04/13 10:39:47;;;;;;;;;;;;;;;9.98;100.00;98317.56;5018143;28;19924;-77
2023/04/13 10:42:13;;;;;;;;;;;;;;;10.57;100.00;98416.78;5026089;28;19917;-79
2023/04/13 10:44:50;;;;;;;;;;;;;;;10.95;100.00;98127.47;5026818;28;19925;-78
2023/04/13 10:47:19;;;;;;;3.22;1.30;;;;;;;10.87;100.00;98037.88;5025674;28;19918;-78
2023/04/13 10:49:45;;;;;;;2.75;1.10;;;;;;;10.17;100.00;97646.56;5034207;28;20357;-75
2023/04/13 10:52:11;;;;;;;;;;;;;;;10.00;100.00;97587.88;5025661;28;20030;-79
2023/04/13 10:54:38;;;;;;;1.50;1.05;;;;;;;10.35;100.00;97592.31;5032876;28;19917;-78
2023/04/13 10:57:05;;;;;;;1.10;1.00;;;;;;;9.76;99.16;97429.91;5029596;28;20088;-77
2023/04/13 10:59:55;;;;;;;3.28;0.98;;;;;;;10.29;99.93;97726.56;5032756;28;20037;-79
2023/04/13 11:02:22;;;;;;;4.00;1.30;;;;;;;10.75;96.40;97552.22;5038951;28;20096;-78
2023/04/13 11:04:48;;;;;;;2.30;1.25;;;;;;;10.98;95.07;97499.72;5008913;28;20030;-78
2023/04/13 11:07:15;;;;;;;2.40;1.17;;;;;;;11.87;92.90;97580.78;5021932;28;20092;-77
2023/04/13 11:09:46;;;;;;;2.33;1.60;;;;;;;12.86;90.39;97580.56;5014020;28;20430;-79
2023/04/13 11:12:13;;;;;;;3.00;0.88;;;;;;;13.13;87.90;97404.81;5019279;28;20044;-78
2023/04/13 11:14:38;;;;;;;3.08;1.15;;;;;;;13.06;82.94;96963.19;5025311;28;20032;-77
2023/04/13 11:17:06;;;;;;;1.43;1.07;;;;;;;12.98;79.85;96707.53;5027506;28;20029;-79
2023/04/13 11:19:31;;;;;;;1.38;1.20;;;;;;;13.09;79.04;96768.00;5018292;28;20034;-79
2023/04/13 11:21:56;;;;;;;1.00;0.90;;;;;;;13.32;78.46;96878.25;5026031;28;20045;-78
2023/04/13 11:24:26;;;;;;;1.25;1.00;;;;;;;12.98;78.94;96953.06;5039069;28;20129;-77
2023/04/13 11:26:53;;;;;;;1.92;1.25;;;;;;;13.61;76.83;96896.38;5010321;28;20042;-78
2023/04/13 11:29:20;;;;;;;2.50;1.17;;;;;;;13.71;75.93;96856.88;5028799;28;20033;-78
2023/04/13 11:31:45;;;;;;;3.78;1.52;;;;;;;13.33;75.90;96873.72;5016576;28;20120;-77
2023/04/13 11:34:11;;;;;;;2.73;1.33;;;;;;;13.11;75.83;96840.03;5021973;28;20116;-78
2023/04/13 11:36:38;;;;;;;1.70;1.17;;;;;;;13.34;75.25;96886.03;5004106;28;20041;-78